Time;durP1;ratioP1;P1;durP2;ratioP2;P2;SDS_P1;SDS_P2;PMS_P1;PMS_P2;Temp;Humidity;BMP_temperature;BMP_pressure;BME280_temperature;BME280_humidity;BME280_pressure;Samples;Min_cycle;Max_cycle;Signal;HPM_P1;HPM_P2
2023/08/18 00:00:51;;;;;;;8.90;8.10;;;;;;;;;;5078458;28;20270;-83
2023/08/18 00:03:19;;;;;;;9.00;8.20;;;;;;;;;;5077668;28;20190;-83
2023/08/18 00:05:45;;;;;;;9.23;8.43;;;;;;;;;;5071088;28;20180;-83
2023/08/18 00:08:11;;;;;;;8.73;7.93;;;;;;;;;;5068652;28;20238;-83
2023/08/18 00:10:38;;;;;;;9.27;8.37;;;;;;;;;;5048104;28;20187;-83
2023/08/18 00:13:04;;;;;;;8.83;8.03;;;;;;;;;;5077966;28;20198;-83
2023/08/18 00:15:30;;;;;;;8.97;8.07;;;;;;;;;;5077742;28;20178;-83
2023/08/18 00:17:56;;;;;;;8.60;7.77;;;;;;;;;;5069559;28;20221;-83
2023/08/18 00:20:22;;;;;;;8.17;7.50;;;;;;;;;;5077686;28;20300;-83
2023/08/18 00:22:50;;;;;;;8.27;7.47;;;;;;;;;;5077978;28;20198;-83
2023/08/18 00:25:17;;;;;;;9.93;7.40;;;;;;;;;;5074587;28;20224;-83
2023/08/18 00:27:43;;;;;;;9.23;8.10;;;;;;;;;;5037749;28;20246;-83
2023/08/18 00:30:10;;;;;;;9.13;7.97;;;;;;;;;;5054439;28;20194;-83
2023/08/18 00:32:36;;;;;;;8.13;7.33;;;;;;;;;;5041597;28;20202;-83
2023/08/18 00:35:02;;;;;;;8.53;7.73;;;;;;;;;;5052912;28;20202;-83
2023/08/18 00:37:28;;;;;;;7.77;7.10;;;;;;;;;;5060764;28;20194;-83
2023/08/18 00:39:54;;;;;;;8.03;7.33;;;;;;;;;;5070324;28;20254;-83
2023/08/18 00:42:20;;;;;;;7.83;7.10;;;;;;;;;;5075821;28;20179;-83
2023/08/18 00:44:46;;;;;;;7.87;7.17;;;;;;;;;;5081155;28;20177;-83
2023/08/18 00:47:14;;;;;;;8.67;7.87;;;;;;;;;;5080998;28;20226;-83
2023/08/18 00:49:40;;;;;;;8.10;7.40;;;;;;;;;;5084953;28;20192;-83
2023/08/18 00:52:06;;;;;;;8.30;7.53;;;;;;;;;;5068470;28;20229;-83
2023/08/18 00:54:32;;;;;;;7.00;6.47;;;;;;;;;;5067648;28;20197;-83
2023/08/18 00:56:58;;;;;;;8.67;7.87;;;;;;;;;;5109911;28;20183;-83
2023/08/18 00:59:25;;;;;;;8.03;7.20;;;;;;;;;;5055670;28;20317;-83
2023/08/18 01:01:53;;;;;;;8.60;7.83;;;;;;;;;;5082486;28;20187;-83
2023/08/18 01:04:19;;;;;;;8.53;7.73;;;;;;;;;;5076336;28;20186;-83
2023/08/18 01:06:45;;;;;;;8.20;7.50;;;;;;;;;;5066768;28;20179;-83
2023/08/18 01:09:14;;;;;;;8.13;7.43;;;;;;;;;;5039919;28;20268;-83
2023/08/18 01:11:52;;;;;;;8.57;7.77;;;;;;;;;;5069816;28;20182;-83
2023/08/18 01:14:27;;;;;;;8.67;7.87;;;;;;;;;;5074788;28;20182;-83
2023/08/18 01:16:57;;;;;;;8.80;7.97;;;;;;;;;;5074694;28;20186;-82
2023/08/18 01:19:26;;;;;;;8.60;7.73;;;;;;;;;;5068291;28;20179;-83
2023/08/18 01:21:54;;;;;;;8.70;7.90;;;;;;;;;;5068533;28;20243;-83
2023/08/18 01:24:21;;;;;;;8.83;8.03;;;;;;;;;;5065323;28;20179;-83
2023/08/18 01:26:47;;;;;;;8.33;7.63;;;;;;;;;;5059285;28;20175;-83
2023/08/18 01:29:13;;;;;;;8.47;7.50;;;;;;;;;;5066977;28;20188;-83
2023/08/18 01:31:39;;;;;;;9.03;8.13;;;;;;;;;;5065632;28;20178;-83
2023/08/18 01:34:07;;;;;;;8.67;7.87;;;;;;;;;;5064919;28;20279;-83
2023/08/18 01:36:38;;;;;;;9.00;8.20;;;;;;;;;;5064939;28;20227;-83
2023/08/18 01:39:08;;;;;;;8.73;7.93;;;;;;;;;;5065759;28;20186;-83
2023/08/18 01:41:34;;;;;;;8.60;7.73;;;;;;;;;;5066146;28;20201;-83
2023/08/18 01:44:00;;;;;;;10.00;8.00;;;;;;;;;;5064262;28;20179;-82
2023/08/18 01:46:26;;;;;;;9.80;8.20;;;;;;;;;;5066762;28;20265;-83
2023/08/18 01:48:53;;;;;;;10.97;7.80;;;;;;;;;;5066055;28;20296;-83
2023/08/18 01:51:19;;;;;;;8.90;7.50;;;;;;;;;;5066026;28;20259;-83
2023/08/18 01:53:45;;;;;;;7.93;7.23;;;;;;;;;;5068803;28;20199;-83
2023/08/18 01:56:11;;;;;;;8.30;7.60;;;;;;;;;;5063128;28;20191;-83
2023/08/18 01:58:37;;;;;;;8.37;7.57;;;;;;;;;;5060302;28;20221;-83
2023/08/18 02:01:03;;;;;;;8.00;6.77;;;;;;;;;;5066297;28;20198;-83
2023/08/18 02:03:29;;;;;;;7.27;6.57;;;;;;;;;;5072999;28;20182;-83
2023/08/18 02:05:58;;;;;;;7.63;6.93;;;;;;;;;;5067026;28;20187;-82
2023/08/18 02:08:25;;;;;;;7.93;7.07;;;;;;;;;;5071034;28;20216;-84
2023/08/18 02:10:51;;;;;;;8.10;6.97;;;;;;;;;;5061826;28;20263;-82
2023/08/18 02:13:17;;;;;;;9.57;6.90;;;;;;;;;;5073299;28;20177;-83
2023/08/18 02:15:47;;;;;;;7.80;7.10;;;;;;;;;;5072055;28;20236;-83
2023/08/18 02:18:13;;;;;;;8.57;7.60;;;;;;;;;;5072819;28;20178;-82
2023/08/18 02:20:39;;;;;;;9.53;7.00;;;;;;;;;;5074101;28;20179;-82
2023/08/18 02:23:07;;;;;;;8.80;7.50;;;;;;;;;;5070503;28;20175;-83
2023/08/18 02:25:36;;;;;;;9.37;7.47;;;;;;;;;;5069955;28;20198;-83
2023/08/18 02:28:02;;;;;;;8.20;7.50;;;;;;;;;;5081022;28;20218;-83
2023/08/18 02:30:30;;;;;;;8.77;7.70;;;;;;;;;;5074609;28;20175;-84
2023/08/18 02:32:56;;;;;;;8.33;7.53;;;;;;;;;;5076052;28;20178;-83
2023/08/18 02:35:23;;;;;;;8.80;7.83;;;;;;;;;;5071746;28;20190;-83
2023/08/18 02:37:51;;;;;;;8.73;7.83;;;;;;;;;;5070833;28;20201;-83
2023/08/18 02:40:17;;;;;;;9.33;8.10;;;;;;;;;;5088356;28;20174;-83
2023/08/18 02:42:43;;;;;;;8.40;7.60;;;;;;;;;;5067333;28;20295;-83
2023/08/18 02:45:09;;;;;;;8.70;7.90;;;;;;;;;;5068315;28;20266;-83
2023/08/18 02:47:38;;;;;;;10.27;8.67;;;;;;;;;;5073092;28;20206;-83
2023/08/18 02:50:04;;;;;;;10.40;8.87;;;;;;;;;;5072000;28;20183;-83
2023/08/18 02:52:30;;;;;;;9.50;8.60;;;;;;;;;;5067521;28;20235;-83
2023/08/18 02:54:58;;;;;;;10.50;8.80;;;;;;;;;;5069392;28;20179;-83
2023/08/18 02:57:24;;;;;;;10.27;9.17;;;;;;;;;;5081372;28;20214;-83
2023/08/18 02:59:50;;;;;;;10.83;9.37;;;;;;;;;;5081479;28;20190;-82
2023/08/18 03:02:16;;;;;;;11.03;10.03;;;;;;;;;;5079453;28;20191;-83
2023/08/18 03:04:45;;;;;;;12.33;10.80;;;;;;;;;;5080711;28;20198;-83
2023/08/18 03:07:11;;;;;;;12.53;11.23;;;;;;;;;;5081393;28;20264;-83
2023/08/18 03:09:37;;;;;;;12.20;11.10;;;;;;;;;;5082017;28;20174;-82
2023/08/18 03:12:03;;;;;;;13.10;11.80;;;;;;;;;;5081512;28;20189;-82
2023/08/18 03:14:29;;;;;;;15.90;12.97;;;;;;;;;;5065477;28;20187;-82
2023/08/18 03:16:55;;;;;;;13.93;12.63;;;;;;;;;;5074790;28;20183;-82
2023/08/18 03:19:24;;;;;;;13.57;12.23;;;;;;;;;;5058703;28;20274;-82
2023/08/18 03:21:50;;;;;;;14.73;13.30;;;;;;;;;;5062787;28;20205;-83
2023/08/18 03:24:17;;;;;;;14.00;12.63;;;;;;;;;;5079411;28;20242;-82
2023/08/18 03:26:43;;;;;;;14.70;13.30;;;;;;;;;;5075479;28;20270;-82
2023/08/18 03:29:09;;;;;;;14.97;13.47;;;;;;;;;;5059299;28;20247;-83
2023/08/18 03:31:35;;;;;;;15.50;13.20;;;;;;;;;;5082691;28;20214;-82
2023/08/18 03:34:01;;;;;;;16.77;15.07;;;;;;;;;;5058723;28;20204;-82
2023/08/18 03:36:27;;;;;;;15.53;13.87;;;;;;;;;;5064733;28;20182;-83
2023/08/18 03:38:53;;;;;;;16.13;14.47;;;;;;;;;;5099122;28;20178;-83
2023/08/18 03:41:19;;;;;;;16.87;15.07;;;;;;;;;;5081292;28;20194;-83
2023/08/18 03:43:45;;;;;;;17.00;15.20;;;;;;;;;;5077533;28;20327;-83
2023/08/18 03:46:25;;;;;;;17.07;15.30;;;;;;;;;;5074313;28;20232;-83
2023/08/18 03:48:51;;;;;;;16.87;15.17;;;;;;;;;;5075264;28;20210;-83
2023/08/18 03:51:19;;;;;;;18.60;16.60;;;;;;;;;;5083203;28;20351;-83
2023/08/18 03:53:45;;;;;;;19.20;16.20;;;;;;;;;;5078097;28;20195;-83
2023/08/18 03:56:11;;;;;;;16.90;15.17;;;;;;;;;;5062785;28;20191;-83
2023/08/18 03:58:37;;;;;;;17.30;15.47;;;;;;;;;;5058185;28;20211;-83
2023/08/18 04:01:07;;;;;;;17.87;15.97;;;;;;;;;;5062386;28;20190;-83
2023/08/18 04:03:41;;;;;;;20.40;16.77;;;;;;;;;;5063473;28;20206;-83
2023/08/18 04:06:07;;;;;;;18.27;16.43;;;;;;;;;;5077573;28;20232;-83
2023/08/18 04:08:43;;;;;;;19.43;17.53;;;;;;;;;;5078670;28;20229;-83
2023/08/18 04:11:10;;;;;;;19.43;17.27;;;;;;;;;;5077844;28;20181;-83
2023/08/18 04:13:39;;;;;;;19.53;17.53;;;;;;;;;;5067630;28;20206;-83
2023/08/18 04:16:05;;;;;;;20.93;17.90;;;;;;;;;;5070742;28;20209;-83
2023/08/18 04:18:31;;;;;;;20.33;17.10;;;;;;;;;;5065156;28;20187;-83
2023/08/18 04:21:00;;;;;;;24.60;18.77;;;;;;;;;;5089752;28;20187;-84
2023/08/18 04:23:28;;;;;;;20.77;18.50;;;;;;;;;;5076704;28;20190;-83
2023/08/18 04:25:55;;;;;;;22.50;19.17;;;;;;;;;;5076559;28;20186;-84
2023/08/18 04:28:21;;;;;;;21.73;19.23;;;;;;;;;;5077565;28;20213;-83
2023/08/18 04:30:47;;;;;;;22.13;19.83;;;;;;;;;;5076718;28;20197;-82
2023/08/18 04:33:13;;;;;;;22.00;19.60;;;;;;;;;;5058250;28;20180;-82
2023/08/18 04:35:40;;;;;;;15.13;13.57;;;;;;;;;;5053357;28;20187;-85
2023/08/18 04:38:07;;;;;;;21.20;18.97;;;;;;;;;;5057808;28;20183;-84
2023/08/18 04:40:33;;;;;;;20.60;18.53;;;;;;;;;;5057631;28;20221;-82
2023/08/18 04:42:59;;;;;;;22.63;18.77;;;;;;;;;;5076369;28;20191;-83
2023/08/18 04:45:25;;;;;;;26.03;19.07;;;;;;;;;;5077203;28;20221;-83
2023/08/18 04:47:53;;;;;;;23.10;19.63;;;;;;;;;;5072197;28;20242;-83
2023/08/18 04:50:20;;;;;;;21.83;19.07;;;;;;;;;;5068843;28;20221;-83
2023/08/18 04:52:46;;;;;;;22.13;19.73;;;;;;;;;;5070823;28;20213;-83
2023/08/18 04:55:15;;;;;;;25.13;19.57;;;;;;;;;;5058249;28;20184;-83
2023/08/18 04:57:41;;;;;;;22.10;19.73;;;;;;;;;;5072611;28;20182;-82
2023/08/18 05:00:09;;;;;;;23.10;20.70;;;;;;;;;;5053554;28;20276;-83
2023/08/18 05:02:37;;;;;;;24.67;21.70;;;;;;;;;;5056635;28;20186;-83
2023/08/18 05:05:03;;;;;;;24.00;21.30;;;;;;;;;;5068332;28;20183;-83
2023/08/18 05:07:29;;;;;;;25.87;21.10;;;;;;;;;;5074722;28;20214;-83
2023/08/18 05:09:57;;;;;;;22.77;20.33;;;;;;;;;;5054027;28;20255;-82
2023/08/18 05:12:24;;;;;;;25.80;21.50;;;;;;;;;;5051140;28;20183;-82
2023/08/18 05:14:50;;;;;;;24.33;21.20;;;;;;;;;;5075921;28;20705;-83
2023/08/18 05:17:16;;;;;;;26.87;21.77;;;;;;;;;;5076659;28;20178;-83
2023/08/18 05:19:42;;;;;;;23.70;21.20;;;;;;;;;;5076713;28;20178;-83
2023/08/18 05:22:08;;;;;;;26.83;21.77;;;;;;;;;;5076510;28;20199;-83
2023/08/18 05:24:34;;;;;;;25.33;21.57;;;;;;;;;;5076287;28;20221;-83
2023/08/18 05:27:00;;;;;;;26.37;21.17;;;;;;;;;;5076434;28;20194;-83
2023/08/18 05:29:26;;;;;;;30.40;22.27;;;;;;;;;;5075138;28;20218;-84
2023/08/18 05:31:52;;;;;;;24.17;21.57;;;;;;;;;;5073435;28;20217;-83
2023/08/18 05:34:19;;;;;;;26.30;21.67;;;;;;;;;;5053421;28;20215;-83
2023/08/18 05:36:45;;;;;;;26.10;21.77;;;;;;;;;;5072182;28;20207;-83
2023/08/18 05:39:11;;;;;;;25.50;21.90;;;;;;;;;;5072985;28;20271;-83
2023/08/18 05:41:37;;;;;;;26.97;22.43;;;;;;;;;;5072814;28;20179;-83
2023/08/18 05:44:03;;;;;;;24.53;21.87;;;;;;;;;;5071786;28;20205;-83
2023/08/18 05:46:30;;;;;;;26.60;22.20;;;;;;;;;;5073220;28;20278;-83
2023/08/18 05:48:56;;;;;;;27.93;21.93;;;;;;;;;;5072996;28;20270;-83
2023/08/18 05:51:24;;;;;;;28.03;21.83;;;;;;;;;;5075748;28;20253;-82
2023/08/18 05:53:50;;;;;;;29.00;21.30;;;;;;;;;;5061573;28;20179;-83
2023/08/18 05:56:17;;;;;;;30.00;22.10;;;;;;;;;;5063715;28;20179;-83
2023/08/18 05:58:46;;;;;;;30.27;22.97;;;;;;;;;;5071949;28;20190;-83
2023/08/18 06:01:12;;;;;;;30.27;23.17;;;;;;;;;;5071899;28;20183;-83
2023/08/18 06:03:38;;;;;;;27.00;21.90;;;;;;;;;;5076378;28;20175;-84
2023/08/18 06:06:04;;;;;;;29.97;22.43;;;;;;;;;;5059506;28;20191;-82
2023/08/18 06:08:30;;;;;;;25.03;21.03;;;;;;;;;;5057564;28;20218;-83
2023/08/18 06:10:57;;;;;;;27.80;21.73;;;;;;;;;;5061742;28;20198;-83
2023/08/18 06:13:23;;;;;;;26.93;21.30;;;;;;;;;;5075980;28;20181;-83
2023/08/18 06:15:52;;;;;;;23.67;20.70;;;;;;;;;;5068457;28;20190;-82
2023/08/18 06:18:18;;;;;;;28.93;22.63;;;;;;;;;;5074295;28;20192;-84
2023/08/18 06:20:46;;;;;;;27.00;21.90;;;;;;;;;;5075858;28;20178;-86
2023/08/18 06:23:14;;;;;;;29.27;21.83;;;;;;;;;;5071446;28;20191;-84
2023/08/18 06:25:40;;;;;;;22.70;20.30;;;;;;;;;;5066834;28;20189;-84
2023/08/18 06:28:06;;;;;;;26.43;21.07;;;;;;;;;;5072000;28;20574;-84
2023/08/18 06:30:32;;;;;;;26.90;21.40;;;;;;;;;;5046491;28;20176;-83
2023/08/18 06:33:01;;;;;;;27.60;20.53;;;;;;;;;;5061558;28;20179;-84
2023/08/18 06:35:27;;;;;;;26.53;22.13;;;;;;;;;;5067632;28;20283;-83
2023/08/18 06:37:53;;;;;;;26.23;21.20;;;;;;;;;;5062031;28;20268;-83
2023/08/18 06:40:22;;;;;;;22.50;20.10;;;;;;;;;;5065909;28;20210;-85
2023/08/18 06:42:49;;;;;;;26.47;21.93;;;;;;;;;;5059051;28;20229;-85
2023/08/18 06:45:15;;;;;;;28.93;20.87;;;;;;;;;;5083802;28;20186;-85
2023/08/18 06:47:41;;;;;;;23.40;20.47;;;;;;;;;;5060125;28;20207;-85
2023/08/18 06:50:09;;;;;;;27.70;20.80;;;;;;;;;;5055775;28;20183;-84
2023/08/18 06:52:35;;;;;;;28.30;19.67;;;;;;;;;;5059634;28;20234;-86
2023/08/18 06:55:03;;;;;;;24.17;19.90;;;;;;;;;;5067239;28;20182;-85
2023/08/18 06:57:29;;;;;;;22.60;19.90;;;;;;;;;;5074916;28;20198;-85
2023/08/18 06:59:55;;;;;;;26.10;19.07;;;;;;;;;;5060117;28;20231;-85
2023/08/18 07:02:22;;;;;;;23.73;18.97;;;;;;;;;;5063061;28;20198;-85
2023/08/18 07:04:49;;;;;;;23.93;20.77;;;;;;;;;;5066728;28;20190;-84
2023/08/18 07:07:15;;;;;;;20.40;18.50;;;;;;;;;;5076113;28;20186;-84
2023/08/18 07:09:41;;;;;;;22.50;20.00;;;;;;;;;;5069875;28;20179;-86
2023/08/18 07:12:08;;;;;;;20.33;18.13;;;;;;;;;;5067334;28;20190;-86
2023/08/18 07:14:34;;;;;;;20.33;18.27;;;;;;;;;;5079269;28;20224;-86
2023/08/18 07:17:00;;;;;;;21.20;18.97;;;;;;;;;;5079749;28;20182;-85
2023/08/18 07:19:26;;;;;;;19.60;17.73;;;;;;;;;;5075608;28;20183;-86
2023/08/18 07:21:52;;;;;;;20.30;18.20;;;;;;;;;;5064778;28;20206;-86
2023/08/18 07:24:18;;;;;;;21.47;18.83;;;;;;;;;;5078986;28;20189;-86
2023/08/18 07:26:46;;;;;;;21.27;18.97;;;;;;;;;;5087661;28;20189;-86
2023/08/18 07:29:15;;;;;;;23.70;19.00;;;;;;;;;;5099180;28;20201;-87
2023/08/18 07:31:42;;;;;;;20.53;17.83;;;;;;;;;;5087793;28;20179;-89
2023/08/18 07:34:08;;;;;;;21.80;19.53;;;;;;;;;;5079145;28;20217;-86
2023/08/18 07:36:35;;;;;;;20.87;18.77;;;;;;;;;;5075552;28;20179;-85
2023/08/18 07:39:04;;;;;;;22.63;19.17;;;;;;;;;;5081608;28;20182;-86
2023/08/18 07:41:32;;;;;;;20.73;18.63;;;;;;;;;;5079442;28;20205;-87
2023/08/18 07:43:58;;;;;;;20.80;18.47;;;;;;;;;;5078755;28;20178;-88
2023/08/18 07:46:24;;;;;;;21.03;18.83;;;;;;;;;;5077925;28;20190;-86
2023/08/18 07:48:53;;;;;;;21.13;19.03;;;;;;;;;;5063308;28;20326;-85
2023/08/18 07:51:19;;;;;;;20.73;18.30;;;;;;;;;;5067313;28;20218;-86
2023/08/18 07:53:45;;;;;;;20.90;18.83;;;;;;;;;;5078219;28;20199;-86
2023/08/18 07:56:14;;;;;;;22.00;18.50;;;;;;;;;;5077390;28;20262;-85
2023/08/18 07:58:40;;;;;;;22.20;20.00;;;;;;;;;;5068678;28;20266;-86
2023/08/18 08:01:06;;;;;;;22.47;19.60;;;;;;;;;;5054482;28;20229;-86
2023/08/18 08:03:33;;;;;;;23.52;21.25;;;;;;;;;;5049366;28;20418;-86
2023/08/18 08:05:59;;;;;;;22.03;19.80;;;;;;;;;;5058235;28;20211;-85
2023/08/18 08:08:25;;;;;;;22.83;20.50;;;;;;;;;;5057423;28;20431;-85
2023/08/18 08:10:51;;;;;;;22.27;20.17;;;;;;;;;;5057724;28;20403;-86
2023/08/18 08:13:17;;;;;;;21.83;19.73;;;;;;;;;;5058725;28;20452;-85
2023/08/18 08:15:46;;;;;;;22.33;20.02;;;;;;;;;;5077399;28;20401;-86
2023/08/18 08:18:13;;;;;;;22.90;20.65;;;;;;;;;;5076983;28;20408;-86
2023/08/18 08:20:40;;;;;;;22.73;20.50;;;;;;;;;;5077471;28;20405;-86
2023/08/18 08:23:09;;;;;;;20.70;18.75;;;;;;;;;;5077403;28;20499;-86
2023/08/18 08:25:35;;;;;;;23.40;20.92;;;;;;;;;;5077560;28;20412;-86
2023/08/18 08:28:07;;;;;;;22.92;20.52;;;;;;;;;;5072967;28;20424;-87
2023/08/18 08:30:33;;;;;;;22.02;20.02;;;;;;;;;;5073881;28;20471;-87
2023/08/18 08:32:59;;;;;;;21.05;19.13;;;;;;;;;;5064919;28;20422;-86
2023/08/18 08:35:28;;;;;;;21.25;19.25;;;;;;;;;;5055894;28;20416;-85
2023/08/18 08:37:54;;;;;;;20.42;18.42;;;;;;;;;;5056628;28;20406;-86
2023/08/18 08:40:21;;;;;;;20.77;18.77;;;;;;;;;;5056551;28;20479;-85
2023/08/18 08:42:53;;;;;;;18.20;16.40;;;;;;;;;;5056395;28;20410;-86
2023/08/18 08:45:20;;;;;;;17.15;15.63;;;;;;;;;;5056426;28;20411;-85
2023/08/18 08:47:50;;;;;;;18.35;16.65;;;;;;;;;;5056152;28;20422;-84
2023/08/18 08:50:17;;;;;;;17.70;16.00;;;;;;;;;;5056970;28;20417;-85
2023/08/18 08:52:47;;;;;;;18.30;16.60;;;;;;;;;;5055853;28;20427;-85
2023/08/18 08:55:14;;;;;;;16.80;15.27;;;;;;;;;;5056676;28;20490;-85
2023/08/18 08:57:40;;;;;;;18.35;16.65;;;;;;;;;;5056817;28;20446;-84
2023/08/18 09:00:06;;;;;;;17.40;15.80;;;;;;;;;;5056215;28;20410;-85
2023/08/18 09:02:35;;;;;;;17.40;15.60;;;;;;;;;;5065085;28;20417;-86
2023/08/18 09:05:01;;;;;;;16.88;15.32;;;;;;;;;;5056485;28;20394;-87
2023/08/18 09:07:28;;;;;;;18.30;16.70;;;;;;;;;;5055906;28;20487;-85
2023/08/18 09:09:57;;;;;;;17.93;16.17;;;;;;;;;;5055993;28;20410;-85
2023/08/18 09:12:28;;;;;;;19.27;17.60;;;;;;;;;;5055654;28;20406;-86
2023/08/18 09:14:54;;;;;;;18.48;16.77;;;;;;;;;;5056302;28;20410;-84
2023/08/18 09:17:22;;;;;;;18.90;17.10;;;;;;;;;;5056167;28;20410;-86
2023/08/18 09:19:49;;;;;;;17.80;16.15;;;;;;;;;;5056214;28;20462;-86
2023/08/18 09:22:20;;;;;;;18.38;16.67;;;;;;;;;;5055695;28;20394;-86
2023/08/18 09:24:51;;;;;;;17.35;15.85;;;;;;;;;;5055783;28;20406;-85
2023/08/18 09:27:17;;;;;;;16.52;15.02;;;;;;;;;;5055655;28;20402;-87
2023/08/18 09:29:43;;;;;;;15.13;13.73;;;;;;;;;;5061750;28;20193;-86
2023/08/18 09:32:10;;;;;;;14.85;13.40;;;;;;;;;;5072218;28;20425;-85
2023/08/18 09:34:42;;;;;;;17.05;15.55;;;;;;;;;;5072327;28;20413;-86
2023/08/18 09:37:08;;;;;;;17.73;16.02;;;;;;;;;;5072685;28;20410;-86
2023/08/18 09:39:37;;;;;;;16.07;14.57;;;;;;;;;;5054983;28;20475;-86
2023/08/18 09:42:03;;;;;;;14.30;13.00;;;;;;;;;;5072571;28;20266;-86
2023/08/18 09:44:29;;;;;;;16.20;14.70;;;;;;;;;;5086435;28;20466;-86
2023/08/18 09:46:56;;;;;;;14.88;13.38;;;;;;;;;;5075948;28;20392;-86
2023/08/18 09:49:23;;;;;;;16.48;14.85;;;;;;;;;;5071719;28;20426;-85
2023/08/18 09:51:56;;;;;;;15.80;14.40;;;;;;;;;;5060611;28;20434;-85
2023/08/18 09:54:27;;;;;;;13.93;12.73;;;;;;;;;;5096312;28;20451;-89
2023/08/18 09:56:55;;;;;;;15.38;13.82;;;;;;;;;;5077994;28;20423;-85
2023/08/18 09:59:26;;;;;;;16.70;15.10;;;;;;;;;;5077538;28;20407;-85
2023/08/18 10:01:55;;;;;;;15.70;14.20;;;;;;;;;;5076469;28;20966;-85
2023/08/18 10:04:25;;;;;;;17.65;16.15;;;;;;;;;;5061847;28;20401;-85
2023/08/18 10:06:54;;;;;;;18.48;16.80;;;;;;;;;;5075493;28;20405;-85
2023/08/18 10:09:22;;;;;;;17.20;15.70;;;;;;;;;;5073873;28;20439;-84
2023/08/18 10:11:52;;;;;;;17.83;16.33;;;;;;;;;;5071826;28;20406;-86
2023/08/18 10:14:20;;;;;;;16.35;14.95;;;;;;;;;;5055533;28;20410;-85
2023/08/18 10:16:52;;;;;;;16.92;15.48;;;;;;;;;;5055473;28;20402;-87
2023/08/18 10:19:38;;;;;;;17.23;15.70;;;;;;;;;;5059316;28;20437;-86
2023/08/18 10:22:04;;;;;;;16.50;15.00;;;;;;;;;;5068173;28;20187;-85
2023/08/18 10:24:30;;;;;;;14.82;13.48;;;;;;;;;;5079730;28;20413;-85
2023/08/18 10:26:59;;;;;;;16.38;15.07;;;;;;;;;;5079012;28;20405;-86
2023/08/18 10:29:25;;;;;;;13.60;12.30;;;;;;;;;;5079336;28;20425;-87
2023/08/18 10:31:56;;;;;;;14.75;13.35;;;;;;;;;;5079677;28;20404;-87
2023/08/18 10:34:22;;;;;;;14.00;12.75;;;;;;;;;;5079314;28;20408;-86
2023/08/18 10:36:57;;;;;;;15.02;13.68;;;;;;;;;;5062808;28;20410;-86
2023/08/18 10:39:24;;;;;;;14.80;13.53;;;;;;;;;;5070449;28;20427;-86
2023/08/18 10:42:07;;;;;;;18.27;16.67;;;;;;;;;;5074520;28;20426;-85
2023/08/18 10:44:34;;;;;;;18.00;16.40;;;;;;;;;;5064571;28;20413;-87
2023/08/18 10:47:02;;;;;;;16.50;15.00;;;;;;;;;;5078399;28;20182;-86
2023/08/18 10:49:31;;;;;;;15.32;13.98;;;;;;;;;;5074922;28;20208;-87
2023/08/18 10:51:57;;;;;;;14.43;13.23;;;;;;;;;;5071675;28;20429;-86
2023/08/18 10:54:23;;;;;;;11.68;10.48;;;;;;;;;;5065046;28;20526;-87
2023/08/18 10:56:52;;;;;;;16.33;14.88;;;;;;;;;;5058346;28;20405;-86
2023/08/18 10:59:19;;;;;;;17.50;16.02;;;;;;;;;;5059130;28;20441;-85
2023/08/18 11:01:45;;;;;;;14.90;13.60;;;;;;;;;;5067799;28;20404;-85
2023/08/18 11:04:14;;;;;;;14.07;12.88;;;;;;;;;;5065687;28;20187;-86
2023/08/18 11:06:41;;;;;;;14.88;13.45;;;;;;;;;;5072308;28;20424;-84
2023/08/18 11:09:07;;;;;;;14.10;12.95;;;;;;;;;;5070160;28;20434;-85
2023/08/18 11:11:36;;;;;;;14.45;13.20;;;;;;;;;;5071319;28;20422;-85
2023/08/18 11:14:02;;;;;;;16.15;14.75;;;;;;;;;;5058031;28;20409;-84
2023/08/18 11:16:28;;;;;;;13.68;12.55;;;;;;;;;;5067751;28;20420;-85
2023/08/18 11:18:56;;;;;;;14.20;13.00;;;;;;;;;;5071088;28;20430;-84
2023/08/18 11:21:22;;;;;;;17.50;16.10;;;;;;;;;;5073426;28;20414;-83
2023/08/18 11:23:48;;;;;;;14.85;13.55;;;;;;;;;;5042623;28;20411;-84
2023/08/18 11:26:14;;;;;;;15.27;13.97;;;;;;;;;;5075062;28;20445;-84
2023/08/18 11:28:43;;;;;;;17.20;15.70;;;;;;;;;;5058271;28;20439;-84
2023/08/18 11:31:10;;;;;;;14.13;12.93;;;;;;;;;;5079432;28;20483;-84
2023/08/18 11:33:36;;;;;;;13.43;12.25;;;;;;;;;;5075593;28;20274;-85
2023/08/18 11:36:05;;;;;;;15.30;14.00;;;;;;;;;;5071224;28;20421;-85
2023/08/18 11:38:31;;;;;;;15.50;14.20;;;;;;;;;;5073673;28;20417;-84
2023/08/18 11:40:58;;;;;;;15.05;13.75;;;;;;;;;;5070137;28;20433;-85
2023/08/18 11:43:27;;;;;;;15.75;14.55;;;;;;;;;;5063614;28;20418;-85
2023/08/18 11:45:53;;;;;;;12.85;11.65;;;;;;;;;;5053235;28;20410;-84
2023/08/18 11:48:20;;;;;;;13.20;12.20;;;;;;;;;;5060665;28;20449;-84
2023/08/18 11:50:47;;;;;;;14.30;12.93;;;;;;;;;;5077990;28;20408;-85
2023/08/18 11:53:13;;;;;;;15.70;14.50;;;;;;;;;;5073948;28;20426;-84
2023/08/18 11:55:39;;;;;;;14.15;12.95;;;;;;;;;;5073144;28;20414;-86
2023/08/18 11:58:06;;;;;;;17.52;16.08;;;;;;;;;;5071822;28;20479;-86
2023/08/18 12:00:36;;;;;;;15.13;13.83;;;;;;;;;;5052610;28;20515;-87
2023/08/18 12:03:03;;;;;;;14.85;13.65;;;;;;;;;;5064987;28;20456;-87
2023/08/18 12:05:32;;;;;;;13.80;12.55;;;;;;;;;;5058304;28;20411;-85
2023/08/18 12:08:04;;;;;;;12.82;11.75;;;;;;;;;;5058280;28;20210;-85
2023/08/18 12:10:31;;;;;;;14.25;13.05;;;;;;;;;;5057368;28;20437;-86
2023/08/18 12:12:58;;;;;;;13.35;12.25;;;;;;;;;;5057112;28;20456;-85
2023/08/18 12:15:25;;;;;;;13.65;12.45;;;;;;;;;;5057729;28;20433;-88
2023/08/18 12:17:51;;;;;;;11.88;10.77;;;;;;;;;;5058158;28;20175;-85
2023/08/18 12:20:21;;;;;;;12.10;11.07;;;;;;;;;;5057741;28;20176;-87
2023/08/18 12:22:50;;;;;;;15.38;14.13;;;;;;;;;;5057342;28;20406;-85
2023/08/18 12:25:17;;;;;;;13.20;12.05;;;;;;;;;;5051201;28;20453;-85
2023/08/18 12:27:49;;;;;;;14.00;12.70;;;;;;;;;;5048441;28;20426;-84
2023/08/18 12:30:16;;;;;;;13.63;12.43;;;;;;;;;;5037354;28;20415;-85
2023/08/18 12:32:43;;;;;;;12.85;11.75;;;;;;;;;;5037343;28;20559;-86
2023/08/18 12:35:12;;;;;;;12.18;11.15;;;;;;;;;;5052166;28;20417;-86
2023/08/18 12:37:38;;;;;;;16.30;15.10;;;;;;;;;;5057046;28;20407;-84
2023/08/18 12:40:10;;;;;;;15.90;14.70;;;;;;;;;;5056878;28;20414;-85
2023/08/18 12:42:37;;;;;;;12.93;11.82;;;;;;;;;;5050343;28;20407;-85
2023/08/18 12:45:03;;;;;;;14.25;13.05;;;;;;;;;;5046446;28;20418;-85
2023/08/18 12:47:32;;;;;;;14.90;13.70;;;;;;;;;;5054471;28;20184;-83
2023/08/18 12:50:02;;;;;;;13.23;11.43;;;;;;;;;;5042627;28;20215;-82
2023/08/18 12:52:31;;;;;;;13.75;12.55;;;;;;;;;;5048195;28;20219;-83
2023/08/18 12:54:57;;;;;;;12.82;11.63;;;;;;;;;;5057545;28;20176;-85
2023/08/18 12:57:23;;;;;;;15.00;13.70;;;;;;;;;;5057600;28;20198;-85
2023/08/18 12:59:49;;;;;;;13.60;12.27;;;;;;;;;;5057440;28;20163;-85
2023/08/18 13:02:17;;;;;;;13.50;12.20;;;;;;;;;;5040855;28;20183;-83
2023/08/18 13:04:44;;;;;;;11.77;10.77;;;;;;;;;;5057094;28;20171;-82
2023/08/18 13:07:10;;;;;;;13.27;12.13;;;;;;;;;;5056874;28;20176;-83
2023/08/18 13:09:38;;;;;;;14.57;13.27;;;;;;;;;;5037001;28;20216;-82
2023/08/18 13:12:07;;;;;;;14.00;11.60;;;;;;;;;;5038626;28;20194;-82
2023/08/18 13:14:33;;;;;;;12.13;11.13;;;;;;;;;;5051657;28;20171;-82
2023/08/18 13:16:59;;;;;;;11.80;10.80;;;;;;;;;;5056855;28;20171;-83
2023/08/18 13:19:26;;;;;;;11.70;8.82;;;;;;;;;;5056329;28;20184;-81
2023/08/18 13:21:52;;;;;;;11.82;10.82;;;;;;;;;;5056725;28;20185;-82
2023/08/18 13:24:18;;;;;;;11.88;10.88;;;;;;;;;;5040651;28;20179;-82
2023/08/18 13:26:47;;;;;;;11.57;10.55;;;;;;;;;;5039752;28;20472;-83
2023/08/18 13:29:13;;;;;;;12.15;11.02;;;;;;;;;;5051421;28;20210;-84
2023/08/18 13:31:39;;;;;;;11.27;10.30;;;;;;;;;;5053210;28;20412;-83
2023/08/18 13:34:08;;;;;;;10.77;9.75;;;;;;;;;;5048161;28;20226;-83
2023/08/18 13:36:35;;;;;;;13.40;12.23;;;;;;;;;;5051141;28;20438;-83
2023/08/18 13:39:01;;;;;;;13.35;12.35;;;;;;;;;;5055510;28;20463;-82
2023/08/18 13:41:27;;;;;;;13.45;12.38;;;;;;;;;;5052270;28;20462;-83
2023/08/18 13:43:53;;;;;;;14.18;12.90;;;;;;;;;;5055735;28;20422;-84
2023/08/18 13:46:22;;;;;;;12.88;11.88;;;;;;;;;;5051447;28;20183;-83
2023/08/18 13:48:51;;;;;;;11.65;10.45;;;;;;;;;;5055521;28;20208;-83
2023/08/18 13:51:17;;;;;;;12.52;11.35;;;;;;;;;;5073101;28;20270;-85
2023/08/18 13:53:43;;;;;;;10.60;9.70;;;;;;;;;;5058034;28;20423;-83
2023/08/18 13:56:09;;;;;;;10.52;9.63;;;;;;;;;;5073499;28;20270;-83
2023/08/18 13:58:37;;;;;;;9.80;9.00;;;;;;;;;;5076056;28;20189;-84
2023/08/18 14:01:04;;;;;;;12.70;11.70;;;;;;;;;;5068973;28;20423;-83
2023/08/18 14:03:31;;;;;;;11.27;10.38;;;;;;;;;;5076675;28;20308;-84
2023/08/18 14:05:57;;;;;;;10.73;9.85;;;;;;;;;;5047570;28;20182;-83
2023/08/18 14:08:23;;;;;;;10.82;9.88;;;;;;;;;;5057832;28;20198;-84
2023/08/18 14:10:49;;;;;;;10.95;9.95;;;;;;;;;;5076647;28;20270;-85
2023/08/18 14:13:15;;;;;;;11.70;10.70;;;;;;;;;;5076601;28;20170;-83
2023/08/18 14:15:45;;;;;;;12.48;11.38;;;;;;;;;;5076260;28;20174;-84
2023/08/18 14:18:12;;;;;;;11.52;10.48;;;;;;;;;;5066593;28;20174;-85
2023/08/18 14:20:38;;;;;;;11.00;10.10;;;;;;;;;;5056281;28;20171;-84
2023/08/18 14:23:04;;;;;;;10.82;9.93;;;;;;;;;;5065298;28;20182;-84